Thornton, CO

02:52 PM MST af February 22, 2017 (GMT -0700)
Shadow Ridge | | Change Station

Elev 5335 ft 39.94 °N, 104.94 °W | Updated 26 seconds ago

klor
klor
56.7 °f
Feels Like 56.7 °f
N
13.2
vint baytevdik vint from mztsmz
Gusts 17.5 mph

haynt
High -- | Low -- °f
--% Chance of Precip.
Yesterday
High -- | Low -- °f
Precip. -- in
druk 29.75 in
zeevdikeyt 10.0 mayln
Clouds klor
toypunkt 26 °f
faykhtkeyt 30%
Rainfall 0.00 in
Snow Depth Not available.
6:42 AM 5:44 PM
Waning Crescent, 15% visible
METAR KEIK 222134Z AUTO 11010KT 10SM CLR 15/M07 A2975 RMK AO2 T01461075
druk 29.75 in
zeevdikeyt 10.0 mayln
Clouds klor
toypunkt 26 °f
faykhtkeyt 30%
Rainfall 0.00 in
Snow Depth Not available.
6:42 AM 5:44 PM
Waning Crescent, 15% visible
METAR KEIK 222134Z AUTO 11010KT 10SM CLR 15/M07 A2975 RMK AO2 T01461075

Get Your Daily Forecast Email!

Thanks for signing up!

Be on the lookout for a verification email in your inbox.

You'll start receiving the daily forecast at 8 AM.

×

10-Day Weather Forecast

Almanac

Astronomy

Feb. 22, 2017 Rise Set
Actual Time
Civil Twilight
Nautical Twilight
Astronomical Twilight
Moon
Length Of Visible Light
Length of Day
Tomorrow will be .
, % of the Moon is Illuminated

Today's Extremes

State Highs State Lows

Community

WunderPhotos

Upload Photos

1,962,540 photos uploaded!

WunderBlog® & News

Nearby

Air Quality

  Air Quality AQ Index Pollutant
Not available.

Snow Depth

Station Depth Elevation

Earthquake Activity

City Distance Mag. Time & Date
Minimum magnitude displayed is 2.5.

Coastal Water Temperatures

plats temperatur

Stations

Nearby Weather Stations

Station Location Temp vintkelt toypunkt faykhtkeyt vint Precip. Elev dertsaytikt Type
                   

Watches & Warnings

There are currently no watches in effect.